Time;durP1;ratioP1;P1;durP2;ratioP2;P2;SDS_P1;SDS_P2;PMS_P1;PMS_P2;Temp;Humidity;BMP_temperature;BMP_pressure;BME280_temperature;BME280_humidity;BME280_pressure;Samples;Min_cycle;Max_cycle;Signal;HPM_P1;HPM_P2
2023/07/20 00:00:37;;;;;;;4.45;2.70;;;;;;;23.88;62.95;65511.09;5032923;28;20206;-51
2023/07/20 00:03:18;;;;;;;9.65;3.28;;;;;;;23.92;62.67;65515.53;5031631;28;20345;-51
2023/07/20 00:05:45;;;;;;;8.00;2.35;;;;;;;23.95;63.83;65516.28;5031592;28;20307;-50
2023/07/20 00:08:11;;;;;;;7.72;2.65;;;;;;;24.24;63.05;65547.88;5032161;28;20191;-50
2023/07/20 00:10:37;;;;;;;5.80;2.65;;;;;;;24.24;63.31;65549.94;5032073;28;20556;-51
2023/07/20 00:13:02;;;;;;;5.25;2.53;;;;;;;24.00;63.91;65523.84;5032832;28;20266;-50
2023/07/20 00:15:27;;;;;;;11.52;2.38;;;;;;;23.86;65.25;65506.31;5032939;28;20206;-50
2023/07/20 00:17:53;;;;;;;6.40;2.53;;;;;;;23.53;67.58;65472.31;5032782;28;20226;-51
2023/07/20 00:20:18;;;;;;;7.35;2.88;;;;;;;23.23;70.32;65439.06;5032931;28;20721;-51
2023/07/20 00:22:44;;;;;;;5.85;2.47;;;;;;;23.34;69.37;65451.81;5032742;28;20312;-51
2023/07/20 00:25:14;;;;;;;9.32;2.97;;;;;;;23.04;70.74;65415.44;5048026;28;20217;-50
2023/07/20 00:27:39;;;;;;;10.68;2.72;;;;;;;23.06;70.79;65418.19;5032627;28;20202;-51
2023/07/20 00:30:05;;;;;;;8.80;2.72;;;;;;;23.01;71.42;65415.22;5032453;28;20221;-51
2023/07/20 00:32:31;;;;;;;4.57;2.55;;;;;;;22.89;71.11;65399.38;5032488;28;20231;-52
2023/07/20 00:34:56;;;;;;;7.82;2.63;;;;;;;22.77;71.44;65386.06;5032381;28;20579;-51
2023/07/20 00:37:22;;;;;;;6.25;2.83;;;;;;;22.72;73.05;65382.56;5032425;28;20654;-52
2023/07/20 00:39:47;;;;;;;8.82;2.50;;;;;;;22.74;72.54;65382.19;5032456;28;20248;-52
2023/07/20 00:42:13;;;;;;;8.25;2.92;;;;;;;22.75;74.02;65386.44;5032635;28;20712;-51
2023/07/20 00:44:39;;;;;;;9.27;3.30;;;;;;;22.77;71.60;65386.06;5032451;28;20279;-52
2023/07/20 00:47:06;;;;;;;11.18;2.83;;;;;;;22.76;72.55;65387.53;5032626;28;20213;-52
2023/07/20 00:49:32;;;;;;;6.25;2.45;;;;;;;22.84;73.03;65396.41;5032460;28;20312;-51
2023/07/20 00:52:01;;;;;;;6.53;2.83;;;;;;;22.85;72.62;65397.50;5047507;28;20284;-51
2023/07/20 00:54:27;;;;;;;9.18;2.90;;;;;;;22.99;72.08;65412.44;5032103;28;20669;-50
2023/07/20 00:56:54;;;;;;;9.25;3.45;;;;;;;22.97;72.92;65408.22;5032241;28;20217;-51
2023/07/20 00:59:21;;;;;;;6.82;2.80;;;;;;;23.20;72.15;65433.72;5032148;28;20198;-50
2023/07/20 01:01:46;;;;;;;6.50;2.85;;;;;;;23.06;72.81;65420.78;5031983;28;20296;-52
2023/07/20 01:04:13;;;;;;;9.88;3.15;;;;;;;22.76;74.46;65387.53;5031898;28;20243;-51
2023/07/20 01:06:38;;;;;;;7.55;2.42;;;;;;;22.88;74.13;65400.84;5032319;28;20684;-51
2023/07/20 01:09:27;;;;;;;8.07;2.95;;;;;;;22.75;73.20;65383.31;5031125;28;20268;-52
2023/07/20 01:12:02;;;;;;;7.45;2.85;;;;;;;22.74;74.72;65384.78;5032543;28;20304;-51
2023/07/20 01:14:27;;;;;;;11.10;3.33;;;;;;;22.33;77.88;65340.47;5032303;28;20248;-53
2023/07/20 01:16:53;;;;;;;12.13;3.15;;;;;;;22.40;77.35;65347.66;5032247;28;20638;-51
2023/07/20 01:19:18;;;;;;;6.80;3.00;;;;;;;22.40;77.69;65347.66;5032072;28;20194;-51
2023/07/20 01:22:07;;;;;;;8.27;2.90;;;;;;;22.45;78.10;65353.19;5032047;28;20225;-50
2023/07/20 01:24:44;;;;;;;4.90;2.40;;;;;;;22.44;79.60;65352.09;5031655;28;20304;-50
2023/07/20 01:27:10;;;;;;;7.25;2.80;;;;;;;22.43;82.02;65354.09;5031995;28;20277;-52
2023/07/20 01:29:44;;;;;;;5.57;2.75;;;;;;;22.31;83.84;65335.69;5031686;28;20190;-52
2023/07/20 01:32:10;;;;;;;5.72;2.85;;;;;;;22.16;85.63;65321.09;5031903;28;20233;-51
2023/07/20 01:34:39;;;;;;;9.65;2.72;;;;;;;22.20;86.67;65322.97;5031623;28;20230;-51
2023/07/20 01:37:06;;;;;;;5.40;2.65;;;;;;;22.11;87.20;65313.00;5031436;28;20597;-50
2023/07/20 01:39:33;;;;;;;3.67;2.28;;;;;;;21.99;87.57;65302.28;5031570;28;20281;-51
2023/07/20 01:41:59;;;;;;;5.47;2.42;;;;;;;21.95;87.87;65298.41;5031388;28;20258;-51
2023/07/20 01:44:24;;;;;;;5.60;2.15;;;;;;;21.94;88.08;65296.75;5031256;28;20773;-50
2023/07/20 01:46:50;;;;;;;10.15;2.58;;;;;;;21.95;88.35;65295.84;5031162;28;20220;-51
2023/07/20 01:49:15;;;;;;;7.32;2.45;;;;;;;21.89;88.63;65291.22;5031369;28;20274;-51
2023/07/20 01:51:41;;;;;;;3.95;2.47;;;;;;;21.78;89.26;65277.00;5031664;28;20212;-51
2023/07/20 01:54:06;;;;;;;7.68;2.58;;;;;;;21.74;89.49;65275.69;5031196;28;20574;-51
2023/07/20 01:56:32;;;;;;;6.35;2.75;;;;;;;21.80;89.19;65281.22;5031389;28;20389;-50
2023/07/20 01:58:57;;;;;;;4.35;2.00;;;;;;;21.88;89.07;65290.09;5031411;28;20589;-51
2023/07/20 02:01:23;;;;;;;5.97;2.50;;;;;;;21.88;88.68;65290.66;5031387;28;20654;-50
2023/07/20 02:03:48;;;;;;;4.22;2.28;;;;;;;21.95;88.77;65297.84;5046409;28;20225;-51
2023/07/20 02:06:14;;;;;;;6.53;2.40;;;;;;;21.90;88.68;65292.31;5029571;28;20700;-51
2023/07/20 02:08:39;;;;;;;8.07;2.25;;;;;;;21.81;89.10;65284.91;5031120;28;20572;-52
2023/07/20 02:11:05;;;;;;;10.68;3.30;;;;;;;21.79;88.36;65280.13;5031254;28;20253;-50
2023/07/20 02:13:30;;;;;;;8.38;2.53;;;;;;;21.83;88.21;65282.00;5030910;28;20206;-51
2023/07/20 02:15:56;;;;;;;4.85;2.30;;;;;;;21.81;88.94;65282.34;5030933;28;20293;-51
2023/07/20 02:18:22;;;;;;;8.18;2.80;;;;;;;21.77;89.21;65276.44;5029593;28;20703;-54
2023/07/20 02:20:47;;;;;;;6.43;2.47;;;;;;;21.73;89.93;65276.63;5030662;28;20188;-51
2023/07/20 02:23:13;;;;;;;6.72;2.80;;;;;;;21.69;90.67;65267.06;5030852;28;20190;-51
2023/07/20 02:25:39;;;;;;;8.95;2.70;;;;;;;21.61;89.81;65260.78;5029337;28;20213;-51
2023/07/20 02:28:05;;;;;;;6.35;2.72;;;;;;;21.81;89.49;65282.91;5030937;28;20186;-51
2023/07/20 02:30:30;;;;;;;7.30;2.72;;;;;;;21.89;88.10;65288.66;5030767;28;20202;-51
2023/07/20 02:32:58;;;;;;;4.90;2.67;;;;;;;21.70;89.45;65268.72;5030589;28;20206;-51
2023/07/20 02:35:24;;;;;;;9.93;2.40;;;;;;;21.81;88.92;65282.34;5030935;28;20202;-51
2023/07/20 02:37:49;;;;;;;8.68;2.40;;;;;;;21.80;88.49;65281.22;5030555;28;20283;-51
2023/07/20 02:40:15;;;;;;;6.38;2.90;;;;;;;21.77;88.22;65281.56;5030579;28;20214;-50
2023/07/20 02:42:41;;;;;;;9.20;2.90;;;;;;;21.77;88.77;65279.00;5030378;28;20213;-51
2023/07/20 02:45:07;;;;;;;8.48;2.90;;;;;;;22.00;87.07;65303.41;5030407;28;20218;-51
2023/07/20 02:47:33;;;;;;;5.63;2.60;;;;;;;22.06;86.15;65313.13;5030397;28;20259;-51
2023/07/20 02:49:59;;;;;;;6.35;3.05;;;;;;;21.77;87.02;65279.00;5030338;28;20198;-51
2023/07/20 02:52:24;;;;;;;8.90;3.22;;;;;;;21.81;87.80;65282.34;5030414;28;20221;-56
2023/07/20 02:54:51;;;;;;;7.43;3.17;;;;;;;21.81;87.17;65282.34;5030403;28;20198;-53
2023/07/20 02:57:16;;;;;;;8.52;3.03;;;;;;;21.71;87.51;65269.81;5030087;28;20225;-56
2023/07/20 02:59:41;;;;;;;8.80;2.63;;;;;;;21.69;88.29;65272.19;5030866;28;20261;-50
2023/07/20 03:02:09;;;;;;;11.85;3.53;;;;;;;21.70;88.76;65271.28;5030692;28;20653;-51
2023/07/20 03:04:36;;;;;;;9.55;3.00;;;;;;;21.69;89.07;65267.59;5030072;28;20206;-52
2023/07/20 03:07:04;;;;;;;8.85;2.97;;;;;;;21.67;89.16;65265.38;5045467;28;20213;-51
2023/07/20 03:09:30;;;;;;;6.80;3.20;;;;;;;21.68;89.10;65269.06;5030077;28;20198;-53
2023/07/20 03:11:55;;;;;;;6.28;2.80;;;;;;;21.74;89.12;65275.69;5030282;28;20268;-51
2023/07/20 03:14:20;;;;;;;10.70;3.83;;;;;;;21.77;88.78;65279.00;5030060;28;20221;-51
2023/07/20 03:16:46;;;;;;;10.05;3.22;;;;;;;21.79;88.93;65282.69;5030051;28;20218;-50
2023/07/20 03:19:11;;;;;;;6.78;3.10;;;;;;;21.87;88.07;65286.44;5030160;28;20732;-51
2023/07/20 03:21:40;;;;;;;14.48;3.90;;;;;;;21.56;90.79;65257.78;5029959;28;20210;-51
2023/07/20 03:24:07;;;;;;;6.63;2.78;;;;;;;21.39;93.15;65236.44;5030187;28;20209;-52
2023/07/20 03:26:33;;;;;;;10.05;3.30;;;;;;;21.71;90.16;65272.38;5029783;28;20305;-50
2023/07/20 03:28:58;;;;;;;6.53;3.15;;;;;;;21.62;91.19;65264.44;5029406;28;20304;-50
2023/07/20 03:31:24;;;;;;;9.00;3.72;;;;;;;21.63;91.85;65266.09;5027930;28;20213;-52
2023/07/20 03:33:50;;;;;;;11.30;3.25;;;;;;;21.63;91.12;65266.09;5031562;28;20202;-50
2023/07/20 03:36:15;;;;;;;6.50;2.80;;;;;;;21.84;90.69;65286.22;5033395;28;20594;-51
2023/07/20 03:38:41;;;;;;;8.65;2.95;;;;;;;21.98;89.02;65298.63;5033467;28;20284;-52
2023/07/20 03:41:09;;;;;;;5.30;3.30;;;;;;;22.04;88.59;65305.78;5033372;28;20289;-54
2023/07/20 03:43:35;;;;;;;10.40;2.95;;;;;;;21.95;89.06;65295.28;5033781;28;20309;-51
2023/07/20 03:46:06;;;;;;;4.57;2.75;;;;;;;21.67;91.85;65269.97;5048925;28;20751;-52
2023/07/20 03:48:32;;;;;;;15.93;3.55;;;;;;;22.01;90.13;65302.47;5016508;28;20225;-51
2023/07/20 03:50:58;;;;;;;7.68;3.38;;;;;;;22.04;89.97;65305.78;5033594;28;20675;-51
2023/07/20 03:53:23;;;;;;;7.70;3.45;;;;;;;21.92;91.81;65295.06;5033194;28;20210;-51
2023/07/20 03:55:51;;;;;;;14.57;3.47;;;;;;;21.85;91.93;65289.34;5033167;28;20198;-57
2023/07/20 03:58:18;;;;;;;12.02;4.00;;;;;;;22.19;89.87;65321.84;5032992;28;20213;-52
2023/07/20 04:00:48;;;;;;;6.07;2.90;;;;;;;22.31;88.51;65340.81;5033195;28;20217;-52
2023/07/20 04:03:15;;;;;;;6.63;2.97;;;;;;;22.21;89.08;65324.06;5033001;28;20205;-52
2023/07/20 04:05:40;;;;;;;9.85;3.25;;;;;;;22.11;89.88;65313.00;5033107;28;20206;-52
2023/07/20 04:08:06;;;;;;;10.43;3.55;;;;;;;22.00;90.53;65300.81;5032972;28;20202;-52
2023/07/20 04:10:31;;;;;;;6.72;3.33;;;;;;;22.13;89.68;65315.19;5032997;28;20202;-52
2023/07/20 04:12:57;;;;;;;10.23;3.20;;;;;;;22.02;90.27;65303.03;5032869;28;20272;-53
2023/07/20 04:15:22;;;;;;;11.02;3.88;;;;;;;21.84;91.10;65285.66;5032638;28;20687;-52
2023/07/20 04:17:48;;;;;;;11.48;3.70;;;;;;;21.73;93.04;65276.63;5032722;28;20235;-51
2023/07/20 04:20:14;;;;;;;9.98;4.40;;;;;;;22.00;91.51;65303.41;5032888;28;20735;-52
2023/07/20 04:22:39;;;;;;;10.98;3.75;;;;;;;22.01;91.47;65305.03;5032438;28;20210;-50
2023/07/20 04:25:05;;;;;;;7.38;3.38;;;;;;;21.88;91.92;65287.53;5032745;28;20217;-52
2023/07/20 04:27:31;;;;;;;13.23;3.63;;;;;;;21.90;92.40;65290.31;5032738;28;20699;-52
2023/07/20 04:30:00;;;;;;;10.25;3.90;;;;;;;21.86;92.17;65287.88;5047701;28;20202;-51
2023/07/20 04:32:26;;;;;;;10.20;3.28;;;;;;;22.02;92.01;65303.56;5032411;28;20214;-51
2023/07/20 04:34:51;;;;;;;9.98;3.50;;;;;;;21.97;91.55;65300.06;5032625;28;20682;-51
2023/07/20 04:37:17;;;;;;;8.95;3.63;;;;;;;21.98;91.00;65298.63;5032486;28;20723;-52
2023/07/20 04:39:43;;;;;;;9.60;3.50;;;;;;;22.05;91.17;65308.91;5032308;28;20226;-53
2023/07/20 04:42:08;;;;;;;5.93;3.38;;;;;;;22.11;90.78;65313.00;5032598;28;20233;-52
2023/07/20 04:44:33;;;;;;;8.82;3.83;;;;;;;21.98;91.70;65301.19;5031977;28;20591;-51
2023/07/20 04:46:59;;;;;;;11.25;4.90;;;;;;;21.94;90.68;65294.19;5032199;28;20225;-52
2023/07/20 04:49:24;;;;;;;13.10;5.47;;;;;;;21.87;89.32;65291.56;5032239;28;20209;-52
2023/07/20 04:51:50;;;;;;;12.15;5.25;;;;;;;21.80;88.79;65279.22;5032095;28;20272;-51
2023/07/20 04:54:18;;;;;;;9.98;4.50;;;;;;;21.91;87.62;65293.44;5030682;28;20194;-51
2023/07/20 04:56:44;;;;;;;8.75;4.35;;;;;;;21.85;85.66;65284.78;5032485;28;20721;-52
2023/07/20 04:59:09;;;;;;;6.72;4.03;;;;;;;21.74;85.73;65275.13;5032369;28;20229;-52
2023/07/20 05:01:35;;;;;;;8.57;3.90;;;;;;;21.69;85.38;65269.63;5032302;28;20675;-52
2023/07/20 05:04:01;;;;;;;7.40;4.40;;;;;;;21.72;85.35;65270.91;5032093;28;20692;-51
2023/07/20 05:06:27;;;;;;;7.45;4.43;;;;;;;21.73;87.30;65274.59;5032120;28;20404;-54
2023/07/20 05:08:52;;;;;;;7.85;4.25;;;;;;;21.82;85.12;65281.44;5032277;28;20240;-52
2023/07/20 05:11:18;;;;;;;6.68;3.85;;;;;;;22.08;85.87;65309.69;5031876;28;20687;-52
2023/07/20 05:13:43;;;;;;;11.18;4.25;;;;;;;22.37;84.55;65344.88;5031987;28;20233;-52
2023/07/20 05:16:09;;;;;;;9.77;3.63;;;;;;;22.55;84.29;65364.25;5032145;28;20225;-52
2023/07/20 05:18:34;;;;;;;8.10;3.67;;;;;;;22.67;82.47;65374.44;5031880;28;20198;-51
2023/07/20 05:21:00;;;;;;;12.18;3.85;;;;;;;22.72;84.65;65382.56;5030750;28;20601;-55
2023/07/20 05:23:25;;;;;;;15.32;4.25;;;;;;;22.79;86.13;65390.28;5031822;28;20264;-52
2023/07/20 05:25:56;;;;;;;10.80;4.10;;;;;;;22.90;84.66;65402.50;5031797;28;20217;-57
2023/07/20 05:28:22;;;;;;;7.60;4.20;;;;;;;22.91;84.64;65401.56;5031622;28;20248;-52
2023/07/20 05:30:48;;;;;;;11.82;3.88;;;;;;;23.01;82.91;65414.66;5032022;28;20693;-51
2023/07/20 05:33:13;;;;;;;9.85;3.35;;;;;;;22.93;82.98;65405.81;5046874;28;20292;-52
2023/07/20 05:35:39;;;;;;;7.97;3.17;;;;;;;22.94;81.97;65404.91;5030408;28;20193;-52
2023/07/20 05:38:06;;;;;;;10.80;3.33;;;;;;;22.84;79.41;65391.25;5031488;28;20209;-52
2023/07/20 05:40:32;;;;;;;8.07;2.92;;;;;;;22.77;80.81;65388.09;5031485;28;20664;-51
2023/07/20 05:42:58;;;;;;;8.93;3.53;;;;;;;22.79;79.35;65390.84;5046549;28;20210;-51
2023/07/20 05:45:24;;;;;;;8.18;3.53;;;;;;;22.89;78.03;65399.38;5031061;28;20226;-52
2023/07/20 05:47:50;;;;;;;6.75;3.25;;;;;;;22.67;79.71;65377.00;5028627;28;20210;-52
2023/07/20 05:50:15;;;;;;;6.63;3.40;;;;;;;22.82;79.01;65391.63;5029771;28;20706;-52
2023/07/20 05:52:41;;;;;;;10.88;3.42;;;;;;;23.01;76.66;65414.66;5030710;28;20217;-51
2023/07/20 05:55:07;;;;;;;9.60;3.67;;;;;;;22.90;78.46;65402.50;5030310;28;20204;-51
2023/07/20 05:57:34;;;;;;;11.13;4.18;;;;;;;22.83;81.54;65395.28;5031290;28;20608;-52
2023/07/20 05:59:59;;;;;;;10.63;4.15;;;;;;;22.96;80.88;65404.56;5029488;28;20617;-51
2023/07/20 06:02:24;;;;;;;10.40;3.30;;;;;;;22.98;81.28;65411.34;5031160;28;20220;-52
2023/07/20 06:04:50;;;;;;;9.20;3.83;;;;;;;23.05;80.47;65419.66;5031173;28;20232;-52
2023/07/20 06:07:15;;;;;;;7.88;3.65;;;;;;;23.38;77.13;65453.09;5031372;28;20210;-52
2023/07/20 06:09:41;;;;;;;9.57;4.47;;;;;;;23.28;78.45;65442.00;5046335;28;20190;-52
2023/07/20 06:12:08;;;;;;;10.52;4.57;;;;;;;23.21;79.85;65436.84;5031150;28;20293;-51
2023/07/20 06:14:34;;;;;;;8.25;4.20;;;;;;;23.32;78.64;65446.47;5031191;28;20205;-52
2023/07/20 06:17:00;;;;;;;15.15;6.35;;;;;;;23.25;78.10;65439.22;5030895;28;20587;-52
2023/07/20 06:19:26;;;;;;;15.07;3.85;;;;;;;23.19;78.05;65432.59;5030840;28;20307;-53
2023/07/20 06:21:51;;;;;;;9.50;4.28;;;;;;;23.29;78.65;65443.13;5046325;28;20304;-52
2023/07/20 06:24:17;;;;;;;12.18;4.50;;;;;;;23.41;77.57;65458.47;5030548;28;20758;-53
2023/07/20 06:26:43;;;;;;;10.52;4.15;;;;;;;23.49;77.92;65464.75;5031206;28;20221;-51
2023/07/20 06:29:09;;;;;;;11.23;4.63;;;;;;;23.85;76.53;65507.78;5030820;28;20194;-51
2023/07/20 06:31:36;;;;;;;10.85;3.78;;;;;;;24.01;73.71;65522.38;5030872;28;20210;-52
2023/07/20 06:34:02;;;;;;;10.32;4.03;;;;;;;24.17;73.87;65540.69;5030740;28;20213;-51
2023/07/20 06:36:28;;;;;;;9.23;4.18;;;;;;;23.93;73.79;65514.06;5030499;28;20221;-51
2023/07/20 06:38:53;;;;;;;9.30;4.18;;;;;;;23.70;75.26;65490.59;5030826;28;20202;-51
2023/07/20 06:41:19;;;;;;;10.52;6.07;;;;;;;23.89;74.76;65511.66;5030531;28;20210;-52
2023/07/20 06:43:45;;;;;;;10.27;4.90;;;;;;;24.04;75.13;65526.28;5030475;28;20256;-51
2023/07/20 06:46:10;;;;;;;10.77;4.30;;;;;;;24.15;74.29;65541.06;5045818;28;20287;-52
2023/07/20 06:48:36;;;;;;;9.13;4.28;;;;;;;24.13;74.87;65535.72;5030647;28;20703;-51
2023/07/20 06:51:02;;;;;;;8.85;3.53;;;;;;;24.10;73.95;65532.38;5030735;28;20214;-52
2023/07/20 06:53:28;;;;;;;11.70;4.28;;;;;;;24.15;75.02;65535.34;5030358;28;20688;-53
2023/07/20 06:55:54;;;;;;;9.18;4.20;;;;;;;24.19;75.06;65542.34;5030408;28;20245;-51
2023/07/20 06:58:21;;;;;;;8.98;4.40;;;;;;;24.39;74.86;65564.53;5030360;28;20206;-51
2023/07/20 07:00:47;;;;;;;9.75;4.38;;;;;;;24.53;76.10;65579.50;5030326;28;20281;-52
2023/07/20 07:03:12;;;;;;;10.73;4.40;;;;;;;24.61;74.98;65588.94;5030332;28;20658;-60
2023/07/20 07:05:38;;;;;;;13.15;3.88;;;;;;;24.86;73.27;65616.69;5030201;28;20225;-56
2023/07/20 07:08:06;;;;;;;11.75;4.88;;;;;;;25.22;71.78;65658.09;5045480;28;20209;-52
2023/07/20 07:10:31;;;;;;;13.02;4.40;;;;;;;25.47;71.96;65686.41;5030129;28;20653;-52
2023/07/20 07:12:57;;;;;;;10.45;4.68;;;;;;;25.56;72.27;65693.28;5030095;28;20264;-53
2023/07/20 07:15:22;;;;;;;14.10;5.13;;;;;;;25.55;71.94;65692.72;5045455;28;20247;-52
2023/07/20 07:17:48;;;;;;;10.88;4.40;;;;;;;25.28;72.62;65662.75;5030196;28;20719;-53
2023/07/20 07:20:14;;;;;;;9.70;5.25;;;;;;;24.91;72.54;65624.25;5030250;28;20228;-53
2023/07/20 07:22:39;;;;;;;10.75;5.60;;;;;;;24.81;73.44;65610.59;5045363;28;20309;-52
2023/07/20 07:25:05;;;;;;;12.95;6.03;;;;;;;24.69;74.66;65597.81;5044999;28;20300;-54
2023/07/20 07:27:31;;;;;;;16.67;5.15;;;;;;;24.97;74.99;65628.88;5029952;28;20209;-52
2023/07/20 07:29:56;;;;;;;11.60;5.10;;;;;;;25.08;73.10;65643.13;5030093;28;20198;-51
2023/07/20 07:32:22;;;;;;;12.90;5.30;;;;;;;25.53;72.54;65689.97;5030199;28;20594;-52
2023/07/20 07:34:48;;;;;;;10.40;5.18;;;;;;;25.43;70.38;65679.41;5045259;28;20561;-52
2023/07/20 07:37:14;;;;;;;10.30;5.35;;;;;;;25.50;68.79;65686.63;5030436;28;20292;-52
2023/07/20 07:39:39;;;;;;;12.00;5.50;;;;;;;25.52;68.50;65688.84;5029860;28;20737;-54
2023/07/20 07:42:06;;;;;;;10.75;5.63;;;;;;;25.84;69.34;65726.94;5030199;28;20214;-51
2023/07/20 07:44:31;;;;;;;12.90;4.85;;;;;;;26.14;67.90;65755.13;5029961;28;20214;-51
2023/07/20 07:46:57;;;;;;;10.82;4.88;;;;;;;26.49;64.67;65793.44;5030030;28;20308;-52
2023/07/20 07:49:23;;;;;;;11.25;4.93;;;;;;;26.36;66.81;65782.13;5029860;28;20275;-51
2023/07/20 07:51:48;;;;;;;12.57;4.53;;;;;;;26.66;65.26;65811.78;5030168;28;20226;-56
2023/07/20 07:54:14;;;;;;;9.02;5.10;;;;;;;26.75;65.81;65824.94;5029608;28;20707;-53
2023/07/20 07:56:40;;;;;;;14.02;5.05;;;;;;;26.98;63.81;65847.38;5030029;28;20280;-52
2023/07/20 07:59:07;;;;;;;13.75;5.10;;;;;;;26.89;62.43;65839.94;5029722;28;20233;-53
2023/07/20 08:01:32;;;;;;;15.07;5.22;;;;;;;26.55;61.44;65800.09;5044894;28;20301;-51
2023/07/20 08:03:58;;;;;;;11.60;4.25;;;;;;;26.51;62.82;65793.63;5029728;28;20217;-55
2023/07/20 08:06:24;;;;;;;14.88;4.45;;;;;;;26.75;62.58;65824.38;5029668;28;20268;-53
2023/07/20 08:08:50;;;;;;;16.40;5.03;;;;;;;26.80;63.78;65827.34;5029585;28;20194;-52
2023/07/20 08:11:15;;;;;;;12.30;4.35;;;;;;;26.82;63.88;65832.72;5029496;28;20647;-53
2023/07/20 08:13:42;;;;;;;12.88;4.70;;;;;;;26.94;62.83;65846.06;5044677;28;20301;-53
2023/07/20 08:16:07;;;;;;;15.60;4.88;;;;;;;26.86;63.15;65836.63;5029413;28;20276;-53
2023/07/20 08:18:32;;;;;;;10.52;4.63;;;;;;;26.74;62.78;65823.28;5030298;28;20591;-58
2023/07/20 08:20:58;;;;;;;10.63;4.82;;;;;;;26.93;63.70;65842.34;5048309;28;20240;-53
2023/07/20 08:23:23;;;;;;;12.77;4.28;;;;;;;27.07;63.98;65857.38;5032757;28;20221;-54
2023/07/20 08:25:49;;;;;;;8.13;4.05;;;;;;;26.81;63.14;65829.03;5032758;28;20218;-52
2023/07/20 08:28:15;;;;;;;11.35;4.45;;;;;;;26.72;64.96;65821.63;5032990;28;20268;-51
2023/07/20 08:30:42;;;;;;;9.98;4.03;;;;;;;26.86;65.89;65836.63;5032536;28;20198;-51
2023/07/20 08:33:08;;;;;;;9.75;4.40;;;;;;;26.74;66.91;65823.84;5032897;28;20198;-52
2023/07/20 08:35:34;;;;;;;11.35;4.05;;;;;;;26.90;68.97;65841.06;5047877;28;20214;-52
2023/07/20 08:37:59;;;;;;;14.07;4.20;;;;;;;26.93;66.15;65844.94;5032434;28;20213;-52
2023/07/20 08:40:25;;;;;;;9.15;4.22;;;;;;;26.65;65.65;65811.22;5032698;28;20202;-52
2023/07/20 08:42:51;;;;;;;10.10;3.70;;;;;;;26.37;64.88;65782.69;5031098;28;20641;-52
2023/07/20 08:45:18;;;;;;;10.63;3.55;;;;;;;26.63;65.05;65811.59;5032425;28;20701;-52
2023/07/20 08:47:45;;;;;;;10.82;3.90;;;;;;;26.42;61.53;65785.69;5032502;28;20210;-51
2023/07/20 08:50:12;;;;;;;7.53;3.22;;;;;;;26.61;62.20;65809.38;5047645;28;20202;-52
2023/07/20 08:52:37;;;;;;;11.48;2.88;;;;;;;26.48;60.61;65794.94;5032365;28;20264;-52
2023/07/20 08:55:04;;;;;;;8.60;3.42;;;;;;;26.60;59.77;65810.84;5030669;28;20693;-52
2023/07/20 08:57:33;;;;;;;6.63;3.00;;;;;;;26.66;58.61;65809.19;5032437;28;20210;-52
2023/07/20 09:00:04;;;;;;;6.25;2.72;;;;;;;26.69;58.13;65815.09;5032214;28;20668;-56
2023/07/20 09:02:35;;;;;;;9.95;3.30;;;;;;;26.71;58.59;65817.91;5031066;28;20206;-52
2023/07/20 09:05:00;;;;;;;6.88;2.70;;;;;;;26.62;56.99;65811.03;5032134;28;20763;-53
2023/07/20 09:07:26;;;;;;;7.80;2.75;;;;;;;26.67;56.91;65810.84;5032059;28;20248;-53
2023/07/20 09:09:52;;;;;;;7.38;2.85;;;;;;;26.74;56.67;65823.28;5032121;28;20284;-56
2023/07/20 09:12:18;;;;;;;10.23;3.33;;;;;;;26.79;55.84;65828.81;5032030;28;20245;-62
2023/07/20 09:14:44;;;;;;;10.98;3.30;;;;;;;26.85;55.86;65833.47;5032106;28;20214;-53
2023/07/20 09:17:13;;;;;;;13.27;3.45;;;;;;;26.95;54.57;65847.16;5032040;28;20218;-51
2023/07/20 09:19:48;;;;;;;15.60;3.20;;;;;;;26.91;54.18;65842.72;5032144;28;20206;-52
2023/07/20 09:22:21;;;;;;;7.10;3.38;;;;;;;27.07;53.35;65854.78;5032343;28;20202;-52
2023/07/20 09:24:46;;;;;;;11.95;2.78;;;;;;;27.01;52.73;65853.28;5031862;28;20222;-52
2023/07/20 09:27:12;;;;;;;8.35;3.28;;;;;;;27.39;52.86;65892.97;5032418;28;20237;-51
2023/07/20 09:29:49;;;;;;;8.85;3.05;;;;;;;27.63;50.78;65919.09;5031241;28;20286;-52
2023/07/20 09:32:20;;;;;;;11.93;3.30;;;;;;;28.17;50.61;65982.34;5031865;28;20239;-55
2023/07/20 09:34:46;;;;;;;6.97;3.17;;;;;;;28.11;50.21;65973.06;5047409;28;20707;-51
2023/07/20 09:37:11;;;;;;;8.48;3.05;;;;;;;27.71;48.96;65928.56;5046978;28;20232;-53
2023/07/20 09:39:44;;;;;;;9.40;2.53;;;;;;;27.91;49.32;65953.38;5031619;28;20197;-53
2023/07/20 09:42:14;;;;;;;10.30;3.00;;;;;;;27.98;49.50;65958.59;5031443;28;20218;-52
2023/07/20 09:44:41;;;;;;;9.80;3.03;;;;;;;28.45;49.21;66012.38;5031349;28;20263;-52
2023/07/20 09:47:06;;;;;;;6.28;2.53;;;;;;;28.16;48.14;65981.22;5030618;28;20210;-57
2023/07/20 09:49:32;;;;;;;7.55;2.78;;;;;;;28.36;48.05;66000.31;5031652;28;20198;-53
2023/07/20 09:52:00;;;;;;;8.40;2.80;;;;;;;28.36;46.97;65999.75;5031370;28;20581;-53
2023/07/20 09:54:27;;;;;;;11.25;2.80;;;;;;;28.54;45.87;66022.38;5031627;28;20210;-52
2023/07/20 09:56:54;;;;;;;5.85;2.88;;;;;;;28.60;44.28;66026.50;5031398;28;20706;-53
2023/07/20 09:59:20;;;;;;;7.55;2.85;;;;;;;28.60;44.95;66023.91;5031228;28;20293;-53
2023/07/20 10:01:47;;;;;;;4.65;2.58;;;;;;;29.13;45.34;66088.09;5031111;28;20345;-53
2023/07/20 10:04:16;;;;;;;7.63;2.88;;;;;;;28.51;45.27;66019.03;5046470;28;20214;-53
2023/07/20 10:06:43;;;;;;;8.40;3.28;;;;;;;28.07;45.55;65971.22;5031739;28;20215;-52
2023/07/20 10:09:12;;;;;;;7.97;3.03;;;;;;;27.51;46.26;65908.91;5031128;28;20202;-55
2023/07/20 10:11:43;;;;;;;6.22;2.67;;;;;;;27.28;46.13;65886.44;5031251;28;20217;-56
2023/07/20 10:14:18;;;;;;;4.55;2.42;;;;;;;27.11;46.28;65867.00;5030853;28;20248;-55
2023/07/20 10:16:51;;;;;;;5.55;2.50;;;;;;;27.04;45.96;65854.59;5030966;28;20213;-55
2023/07/20 10:19:23;;;;;;;7.70;2.45;;;;;;;26.91;46.56;65845.31;5046255;28;20283;-55
2023/07/20 10:21:56;;;;;;;8.95;2.30;;;;;;;26.85;47.78;65836.06;5030871;28;20244;-59
2023/07/20 10:24:24;;;;;;;5.90;2.42;;;;;;;26.91;47.91;65842.16;5029607;28;20225;-54
2023/07/20 10:26:51;;;;;;;3.80;2.00;;;;;;;26.90;47.10;65841.06;5030843;28;20282;-56
2023/07/20 10:29:16;;;;;;;7.70;2.95;;;;;;;26.98;47.50;65844.78;5030796;28;20284;-55
2023/07/20 10:31:43;;;;;;;14.40;2.75;;;;;;;26.97;48.72;65848.81;5030623;28;20256;-55
2023/07/20 10:34:10;;;;;;;8.30;3.00;;;;;;;26.94;48.55;65845.50;5029326;28;20198;-55
2023/07/20 10:36:49;;;;;;;7.00;2.20;;;;;;;26.99;47.95;65851.06;5030431;28;20747;-54
2023/07/20 10:39:30;;;;;;;6.88;2.65;;;;;;;27.12;47.84;65866.06;5030127;28;20205;-59
2023/07/20 10:42:10;;;;;;;3.40;1.98;;;;;;;27.03;47.57;65856.06;5030130;28;20210;-54
2023/07/20 10:44:40;;;;;;;6.57;2.50;;;;;;;27.07;48.04;65857.38;5030456;28;20225;-57
2023/07/20 10:47:12;;;;;;;8.48;2.80;;;;;;;27.09;47.41;65859.59;5029407;28;20202;-54
2023/07/20 10:49:57;;;;;;;6.43;2.00;;;;;;;27.11;47.76;65864.41;5030507;28;20218;-55
2023/07/20 10:52:23;;;;;;;12.60;2.97;;;;;;;27.45;48.72;65902.22;5030545;28;20217;-54
2023/07/20 10:54:49;;;;;;;8.27;3.75;;;;;;;27.58;50.52;65916.69;5030557;28;20281;-54
2023/07/20 10:57:31;;;;;;;5.82;2.25;;;;;;;27.21;47.83;65872.94;5030812;28;20237;-55
2023/07/20 11:00:13;;;;;;;9.20;2.75;;;;;;;27.21;48.73;65873.47;5030447;28;20197;-55
2023/07/20 11:02:43;;;;;;;7.35;3.25;;;;;;;27.46;51.38;65903.34;5030137;28;20205;-56
2023/07/20 11:05:35;;;;;;;7.45;3.08;;;;;;;27.75;50.38;65935.03;5030115;28;20222;-53
2023/07/20 11:08:03;;;;;;;10.48;2.63;;;;;;;27.58;53.21;65916.13;5030462;28;20178;-53
2023/07/20 11:10:29;;;;;;;4.97;2.63;;;;;;;27.57;50.83;65915.56;5030410;28;20206;-54
2023/07/20 11:13:17;;;;;;;5.93;2.55;;;;;;;27.92;50.52;65951.34;5030422;28;20692;-54
2023/07/20 11:15:47;;;;;;;7.28;2.85;;;;;;;28.29;49.49;65992.53;5020840;28;20241;-53
2023/07/20 11:18:13;;;;;;;9.10;3.65;;;;;;;28.55;49.63;66024.06;5030030;28;20206;-53
2023/07/20 11:20:39;;;;;;;5.93;2.58;;;;;;;28.62;48.08;66031.88;5030083;28;20217;-56
2023/07/20 11:23:05;;;;;;;7.57;2.75;;;;;;;28.75;47.66;66043.19;5045454;28;20209;-54
2023/07/20 11:25:40;;;;;;;7.47;3.17;;;;;;;28.84;46.32;66055.81;5030025;28;20259;-53
2023/07/20 11:28:10;;;;;;;7.25;3.10;;;;;;;29.42;47.56;66117.25;5045161;28;20234;-54
2023/07/20 11:30:38;;;;;;;13.00;3.33;;;;;;;29.39;47.54;66111.84;5029933;28;20190;-54